Time;durP1;ratioP1;P1;durP2;ratioP2;P2;SDS_P1;SDS_P2;PMS_P1;PMS_P2;Temp;Humidity;BMP_temperature;BMP_pressure;BME280_temperature;BME280_humidity;BME280_pressure;Samples;Min_cycle;Max_cycle;Signal;HPM_P1;HPM_P2
2021/08/14 00:01:15;;;;;;;10.63;7.37;;;;;;;19.65;59.58;101220.47;1712309;80;21054;-71
2021/08/14 00:03:41;;;;;;;12.80;8.48;;;;;;;19.62;59.83;101220.83;1712273;82;21082;-71
2021/08/14 00:06:07;;;;;;;12.37;7.87;;;;;;;19.59;59.79;101226.48;1690271;81;21070;-69
2021/08/14 00:08:34;;;;;;;13.43;7.80;;;;;;;19.55;59.72;101223.78;1728751;82;21120;-69
2021/08/14 00:11:03;;;;;;;14.10;7.33;;;;;;;19.50;59.80;101228.26;1738221;82;21792;-70
2021/08/14 00:13:30;;;;;;;14.38;8.48;;;;;;;19.48;59.67;101232.45;1674994;82;21039;-69
2021/08/14 00:15:57;;;;;;;13.62;7.45;;;;;;;19.46;59.72;101233.59;1735988;80;21110;-71
2021/08/14 00:18:23;;;;;;;14.35;7.85;;;;;;;19.39;59.42;101226.72;1733501;82;21027;-70
2021/08/14 00:20:50;;;;;;;14.53;7.75;;;;;;;19.35;59.21;101229.86;1694894;82;21574;-70
2021/08/14 00:23:16;;;;;;;13.95;8.00;;;;;;;19.31;59.08;101238.69;1725568;82;21039;-70
2021/08/14 00:25:43;;;;;;;13.78;7.78;;;;;;;19.27;59.04;101246.69;1727019;82;22162;-70
2021/08/14 00:28:10;;;;;;;12.88;7.85;;;;;;;19.25;59.09;101246.02;1694663;82;21036;-70
2021/08/14 00:30:36;;;;;;;13.45;7.22;;;;;;;19.23;59.12;101247.98;1729219;82;21045;-70
2021/08/14 00:33:03;;;;;;;11.43;6.72;;;;;;;19.21;59.10;101249.47;1722264;82;21121;-70
2021/08/14 00:35:30;;;;;;;12.95;7.40;;;;;;;19.18;59.19;101247.63;1702020;82;21046;-71
2021/08/14 00:37:56;;;;;;;11.95;6.78;;;;;;;19.19;59.28;101252.80;1732858;81;21008;-70
2021/08/14 00:40:23;;;;;;;14.38;7.40;;;;;;;19.26;59.33;101253.01;1700494;82;21499;-71
2021/08/14 00:42:49;;;;;;;14.15;7.62;;;;;;;19.28;60.08;101249.20;1733437;80;21035;-72
2021/08/14 00:45:15;;;;;;;11.35;7.70;;;;;;;19.29;60.46;101259.37;1731724;82;21620;-70
2021/08/14 00:47:42;;;;;;;11.85;7.42;;;;;;;19.26;60.87;101259.67;1731517;82;21023;-70
2021/08/14 00:50:11;;;;;;;12.45;7.65;;;;;;;19.26;61.43;101263.68;1704705;82;21062;-70
2021/08/14 00:52:37;;;;;;;14.65;8.58;;;;;;;19.26;62.29;101262.34;1723849;82;21141;-70
2021/08/14 00:55:04;;;;;;;13.20;7.90;;;;;;;19.27;63.05;101259.52;1723638;82;21090;-70
2021/08/14 00:57:32;;;;;;;11.80;7.85;;;;;;;19.26;62.44;101265.84;1716235;82;21541;-71
2021/08/14 00:59:58;;;;;;;10.88;7.12;;;;;;;19.22;61.85;101267.17;1732134;82;21047;-71
2021/08/14 01:02:25;;;;;;;12.95;7.85;;;;;;;19.17;61.65;101260.14;1729348;82;21086;-70
2021/08/14 01:04:53;;;;;;;11.75;7.78;;;;;;;19.11;61.90;101266.95;1722360;82;21090;-71
2021/08/14 01:07:22;;;;;;;11.08;7.00;;;;;;;19.14;61.96;101270.29;1722058;82;21077;-70
2021/08/14 01:09:48;;;;;;;18.37;8.28;;;;;;;19.17;62.03;101269.47;1726425;82;21092;-70
2021/08/14 01:12:16;;;;;;;11.75;7.50;;;;;;;19.18;62.54;101266.30;1715193;82;21561;-70
2021/08/14 01:14:48;;;;;;;11.50;7.47;;;;;;;19.20;62.58;101271.83;1720717;82;20988;-70
2021/08/14 01:17:16;;;;;;;12.58;7.17;;;;;;;19.18;62.37;101284.97;1725151;82;21051;-72
2021/08/14 01:19:43;;;;;;;10.38;7.17;;;;;;;19.15;62.17;101284.81;1724554;82;21090;-71
2021/08/14 01:22:14;;;;;;;13.55;8.08;;;;;;;19.10;61.71;101285.78;1719964;82;21062;-70
2021/08/14 01:24:43;;;;;;;12.10;7.28;;;;;;;19.05;61.60;101282.23;1722648;82;21079;-70
2021/08/14 01:27:09;;;;;;;10.30;7.97;;;;;;;18.99;61.84;101281.52;1720264;82;21031;-70
2021/08/14 01:29:37;;;;;;;9.80;6.72;;;;;;;18.95;61.84;101282.84;1724537;82;21039;-70
2021/08/14 01:32:06;;;;;;;10.43;6.80;;;;;;;18.88;62.12;101275.95;1722334;82;21094;-70
2021/08/14 01:34:33;;;;;;;16.75;8.48;;;;;;;18.85;62.32;101281.59;1727735;82;21113;-70
2021/08/14 01:37:01;;;;;;;11.30;6.87;;;;;;;18.85;62.43;101275.43;1722571;82;21877;-70
2021/08/14 01:39:27;;;;;;;11.73;6.33;;;;;;;18.86;62.39;101271.75;1697335;82;21042;-70
2021/08/14 01:42:01;;;;;;;13.38;8.28;;;;;;;18.86;62.25;101274.42;1721447;82;21071;-70
2021/08/14 01:44:28;;;;;;;13.15;7.65;;;;;;;18.82;62.09;101268.53;1721404;82;22233;-71
2021/08/14 01:46:55;;;;;;;11.45;7.85;;;;;;;18.74;62.19;101269.33;1720380;82;22112;-72
2021/08/14 01:49:21;;;;;;;10.98;7.10;;;;;;;18.67;62.46;101268.25;1726022;82;21103;-70
2021/08/14 01:51:48;;;;;;;11.12;7.45;;;;;;;18.63;62.67;101270.89;1702502;82;21051;-70
2021/08/14 01:54:15;;;;;;;10.88;7.30;;;;;;;18.60;62.69;101271.20;1717853;81;21020;-69
2021/08/14 01:56:41;;;;;;;14.63;8.23;;;;;;;18.56;62.90;101267.18;1712390;82;21023;-70
2021/08/14 01:59:08;;;;;;;10.63;7.45;;;;;;;18.53;63.04;101268.31;1717851;82;21032;-71
2021/08/14 02:01:34;;;;;;;11.50;7.70;;;;;;;18.52;63.30;101264.46;1719840;82;21039;-72
2021/08/14 02:04:00;;;;;;;11.15;7.53;;;;;;;18.53;63.24;101270.14;1694514;82;21068;-70
2021/08/14 02:06:27;;;;;;;12.90;7.60;;;;;;;18.57;63.01;101267.00;1717158;82;21043;-71
2021/08/14 02:08:55;;;;;;;11.48;7.78;;;;;;;18.56;62.99;101269.34;1718216;82;21114;-70
2021/08/14 02:11:30;;;;;;;12.18;7.87;;;;;;;18.55;63.05;101272.16;1716956;81;21542;-72
2021/08/14 02:13:56;;;;;;;11.40;7.72;;;;;;;18.52;63.05;101263.95;1718587;82;21433;-71
2021/08/14 02:16:23;;;;;;;12.25;7.85;;;;;;;18.51;63.27;101264.14;1718768;82;21546;-72
2021/08/14 02:18:49;;;;;;;12.23;7.97;;;;;;;18.50;63.15;101265.11;1718498;82;21103;-70
2021/08/14 02:21:16;;;;;;;12.05;7.83;;;;;;;18.48;63.21;101265.27;1703802;82;21071;-70
2021/08/14 02:23:42;;;;;;;15.35;7.25;;;;;;;18.47;63.17;101262.75;1720474;82;21107;-70
2021/08/14 02:26:09;;;;;;;12.00;7.35;;;;;;;18.44;63.17;101265.24;1718785;82;21126;-70
2021/08/14 02:28:35;;;;;;;11.60;7.95;;;;;;;18.41;63.13;101256.22;1717738;82;21016;-70
2021/08/14 02:31:02;;;;;;;12.30;8.20;;;;;;;18.40;63.04;101267.02;1712922;82;21938;-69
2021/08/14 02:33:29;;;;;;;12.00;8.98;;;;;;;18.36;62.96;101266.50;1713118;82;21307;-70
2021/08/14 02:35:56;;;;;;;15.83;9.93;;;;;;;18.40;62.92;101271.02;1714867;81;21578;-70
2021/08/14 02:38:22;;;;;;;15.38;11.53;;;;;;;18.41;62.89;101274.88;1696423;82;21309;-71
2021/08/14 02:40:49;;;;;;;15.55;10.00;;;;;;;18.40;62.80;101270.52;1701138;82;21107;-72
2021/08/14 02:43:15;;;;;;;11.35;8.35;;;;;;;18.36;62.79;101275.31;1700472;82;21482;-71
2021/08/14 02:45:42;;;;;;;11.05;7.33;;;;;;;18.30;62.69;101275.09;1718218;82;21044;-71
2021/08/14 02:48:09;;;;;;;11.08;7.47;;;;;;;18.23;62.39;101270.86;1716664;82;21819;-70
2021/08/14 02:50:36;;;;;;;12.43;7.50;;;;;;;18.15;62.00;101273.44;1720215;82;21094;-70
2021/08/14 02:53:03;;;;;;;12.35;7.00;;;;;;;18.09;61.64;101268.23;1713315;81;20992;-70
2021/08/14 02:55:31;;;;;;;13.93;7.80;;;;;;;18.02;61.27;101272.45;1719384;82;21091;-70
2021/08/14 02:57:59;;;;;;;13.20;7.28;;;;;;;17.93;61.33;101268.05;1716929;82;21411;-69
2021/08/14 03:00:25;;;;;;;13.18;6.90;;;;;;;17.84;61.55;101273.75;1709600;82;21149;-70
2021/08/14 03:02:52;;;;;;;12.10;7.33;;;;;;;17.80;61.83;101278.53;1724069;82;21106;-70
2021/08/14 03:05:19;;;;;;;13.60;6.97;;;;;;;17.79;61.98;101274.69;1717342;82;21573;-70
2021/08/14 03:10:04;;;;;;;10.75;7.15;;;;;;;17.95;61.67;101269.55;1785747;79;22538;-62
2021/08/14 03:12:30;;;;;;;11.60;6.90;;;;;;;17.94;61.22;101273.73;1762789;80;20891;-62
2021/08/14 03:14:57;;;;;;;10.82;7.03;;;;;;;17.93;60.89;101270.70;1767631;78;21000;-58
2021/08/14 03:17:25;;;;;;;10.50;7.55;;;;;;;17.93;60.78;101268.05;1774650;78;20963;-62
2021/08/14 03:19:51;;;;;;;11.25;6.92;;;;;;;17.94;60.74;101265.23;1775891;78;21042;-63
2021/08/14 03:22:17;;;;;;;10.55;6.20;;;;;;;17.95;60.63;101262.07;1770296;78;21021;-63
2021/08/14 03:24:44;;;;;;;10.43;7.05;;;;;;;17.95;60.47;101267.39;1777381;78;20986;-64
2021/08/14 03:27:12;;;;;;;10.70;6.92;;;;;;;17.92;60.40;101273.87;1771098;78;21074;-64
2021/08/14 03:29:38;;;;;;;9.70;7.05;;;;;;;17.92;60.42;101273.02;1771598;78;21080;-63
2021/08/14 03:32:06;;;;;;;9.75;6.05;;;;;;;17.92;60.68;101273.87;1770387;78;21035;-64
2021/08/14 03:34:33;;;;;;;10.28;7.05;;;;;;;17.94;60.70;101271.89;1770743;78;21570;-64
2021/08/14 03:37:00;;;;;;;12.25;6.92;;;;;;;17.97;61.08;101271.60;1747853;78;20956;-63
2021/08/14 03:39:26;;;;;;;11.15;6.55;;;;;;;18.05;60.74;101264.17;1774393;78;21208;-63
2021/08/14 03:41:53;;;;;;;9.65;6.15;;;;;;;18.16;60.62;101269.80;1736149;80;21083;-64
2021/08/14 03:44:20;;;;;;;10.53;6.67;;;;;;;18.26;60.50;101265.73;1710519;81;21086;-63
2021/08/14 03:46:47;;;;;;;11.28;6.95;;;;;;;18.33;60.21;101266.80;1712452;81;21079;-63
2021/08/14 03:49:15;;;;;;;11.80;6.90;;;;;;;18.38;60.63;101269.84;1680496;83;21620;-64
2021/08/14 03:51:41;;;;;;;10.00;7.28;;;;;;;18.41;61.06;101268.21;1738030;80;21533;-63
2021/08/14 03:54:08;;;;;;;12.85;8.70;;;;;;;18.45;61.23;101270.89;1741886;80;21039;-63
2021/08/14 03:56:34;;;;;;;11.25;7.33;;;;;;;18.49;61.15;101274.09;1721068;81;21108;-65
2021/08/14 03:59:02;;;;;;;9.15;5.95;;;;;;;18.49;60.55;101276.75;1677305;83;21023;-61
2021/08/14 04:01:29;;;;;;;10.18;6.72;;;;;;;18.46;60.28;101278.39;1702484;81;21115;-59
2021/08/14 04:03:55;;;;;;;10.03;5.65;;;;;;;18.44;60.11;101282.56;1719783;81;21138;-59
2021/08/14 04:06:22;;;;;;;9.00;5.85;;;;;;;18.41;59.99;101276.20;1712710;81;21522;-60
2021/08/14 04:08:50;;;;;;;12.65;6.30;;;;;;;18.41;59.86;101282.00;1732103;80;21162;-60
2021/08/14 04:11:17;;;;;;;12.75;6.42;;;;;;;18.41;59.43;101278.87;1718526;81;21525;-60
2021/08/14 04:13:45;;;;;;;10.63;6.33;;;;;;;18.43;59.42;101285.38;1756740;79;21030;-60
2021/08/14 04:16:13;;;;;;;10.18;6.33;;;;;;;18.45;59.49;101279.39;1758031;79;21106;-59
2021/08/14 04:18:39;;;;;;;10.13;5.72;;;;;;;18.45;59.72;101279.39;1734451;79;21155;-60
2021/08/14 04:21:06;;;;;;;9.65;5.83;;;;;;;18.51;59.93;101282.29;1754976;79;21510;-60
2021/08/14 04:23:34;;;;;;;9.83;5.80;;;;;;;18.62;59.93;101284.37;1760245;79;21111;-59
2021/08/14 04:26:01;;;;;;;12.73;5.75;;;;;;;18.71;59.85;101292.29;1752999;79;21074;-60
2021/08/14 04:28:27;;;;;;;8.40;5.33;;;;;;;18.82;59.88;101293.86;1747015;79;22250;-60
2021/08/14 04:30:54;;;;;;;9.35;6.08;;;;;;;18.89;59.91;101287.45;1751447;79;21084;-60
2021/08/14 04:33:20;;;;;;;14.35;5.85;;;;;;;18.99;59.66;101276.69;1759292;79;21032;-59
2021/08/14 04:35:49;;;;;;;10.53;5.62;;;;;;;19.10;59.12;101281.27;1738312;79;21070;-59
2021/08/14 04:38:15;;;;;;;9.08;5.85;;;;;;;19.21;58.69;101282.82;1758409;79;21058;-59
2021/08/14 04:40:42;;;;;;;7.95;4.85;;;;;;;19.29;58.43;101287.38;1754680;79;21506;-59
2021/08/14 04:43:09;;;;;;;8.68;5.22;;;;;;;19.34;58.34;101282.41;1740526;80;21558;-59
2021/08/14 04:45:35;;;;;;;8.95;5.00;;;;;;;19.42;57.59;101283.79;1752272;79;21089;-59
2021/08/14 04:48:02;;;;;;;7.17;4.62;;;;;;;19.49;57.39;101286.66;1764480;79;21511;-59
2021/08/14 04:50:28;;;;;;;11.30;4.33;;;;;;;19.55;57.33;101284.70;1742587;80;21030;-60
2021/08/14 04:52:55;;;;;;;13.10;4.78;;;;;;;19.61;57.29;101285.38;1762743;79;21530;-60
2021/08/14 04:55:21;;;;;;;6.40;4.22;;;;;;;19.66;56.85;101281.72;1754429;79;21356;-63
2021/08/14 04:57:50;;;;;;;8.30;4.97;;;;;;;19.71;56.70;101286.59;1747877;79;21068;-63
2021/08/14 05:00:17;;;;;;;10.10;4.92;;;;;;;19.75;56.53;101286.62;1761789;79;21072;-62
2021/08/14 05:02:43;;;;;;;7.30;4.78;;;;;;;19.80;56.88;101285.67;1755741;79;21134;-63
2021/08/14 05:05:10;;;;;;;7.72;4.22;;;;;;;19.84;56.91;101284.84;1736432;80;21913;-64
2021/08/14 05:07:38;;;;;;;8.10;5.00;;;;;;;19.94;57.09;101284.68;1761912;79;21126;-64
2021/08/14 05:10:06;;;;;;;8.58;4.90;;;;;;;20.07;57.14;101284.22;1758279;79;21059;-63
2021/08/14 05:12:33;;;;;;;7.75;4.50;;;;;;;20.19;56.75;101286.44;1750081;79;21062;-61
2021/08/14 05:14:59;;;;;;;9.43;5.30;;;;;;;20.28;57.21;101288.62;1748127;79;21078;-63
2021/08/14 05:17:26;;;;;;;9.43;5.87;;;;;;;20.35;57.13;101281.60;1761220;79;21129;-62
2021/08/14 05:19:52;;;;;;;10.50;5.62;;;;;;;20.42;57.09;101280.44;1754874;79;21086;-63
2021/08/14 05:22:19;;;;;;;14.60;6.42;;;;;;;20.48;56.94;101282.46;1737250;79;21034;-63
2021/08/14 05:24:45;;;;;;;14.90;7.42;;;;;;;20.52;56.89;101277.11;1761253;79;21043;-63
2021/08/14 05:27:12;;;;;;;12.93;7.22;;;;;;;20.54;57.18;101277.80;1737335;79;21082;-64
2021/08/14 05:29:39;;;;;;;13.98;6.53;;;;;;;20.57;56.78;101274.77;1691241;82;21113;-64
2021/08/14 05:32:07;;;;;;;13.03;6.97;;;;;;;20.61;56.82;101279.30;1740907;79;21063;-64
2021/08/14 05:34:34;;;;;;;12.58;6.50;;;;;;;20.63;56.95;101285.34;1735990;79;21074;-64
2021/08/14 05:37:00;;;;;;;12.13;6.05;;;;;;;20.66;56.98;101282.82;1746845;79;21450;-64
2021/08/14 05:39:27;;;;;;;11.83;5.75;;;;;;;20.71;56.99;101281.34;1758730;79;21055;-63
2021/08/14 05:41:53;;;;;;;14.43;6.37;;;;;;;20.82;56.90;101280.66;1745041;79;21175;-63
2021/08/14 05:44:20;;;;;;;14.20;6.83;;;;;;;20.91;56.49;101279.63;1755278;79;21046;-63
2021/08/14 05:46:47;;;;;;;13.28;6.17;;;;;;;20.98;56.30;101280.66;1753661;79;20987;-62
2021/08/14 05:49:14;;;;;;;10.40;5.47;;;;;;;21.02;56.70;101283.30;1696950;82;21539;-62
2021/08/14 05:51:41;;;;;;;11.00;6.03;;;;;;;21.07;57.03;101285.48;1763527;79;21054;-63
2021/08/14 05:54:09;;;;;;;10.45;5.62;;;;;;;21.12;57.02;101283.95;1743736;80;21483;-63
2021/08/14 05:56:35;;;;;;;10.40;5.62;;;;;;;21.19;56.67;101285.45;1764757;79;21039;-63
2021/08/14 05:59:03;;;;;;;11.80;6.12;;;;;;;21.23;56.77;101281.92;1761042;79;21074;-63
2021/08/14 06:01:29;;;;;;;12.58;6.78;;;;;;;21.27;56.01;101284.09;1757090;79;21183;-63
2021/08/14 06:03:57;;;;;;;11.08;6.42;;;;;;;21.31;55.86;101285.41;1756941;79;21058;-60
2021/08/14 06:06:24;;;;;;;14.55;6.15;;;;;;;21.34;56.09;101287.74;1740113;79;21066;-56
2021/08/14 06:08:51;;;;;;;10.70;5.15;;;;;;;21.38;56.22;101286.06;1745095;78;21012;-57
2021/08/14 06:11:17;;;;;;;13.10;5.60;;;;;;;21.39;55.55;101289.91;1714947;82;21097;-60
2021/08/14 06:13:46;;;;;;;11.48;5.47;;;;;;;21.41;55.34;101287.06;1704464;82;21020;-60
2021/08/14 06:16:14;;;;;;;9.95;5.28;;;;;;;21.45;55.38;101286.56;1736321;80;21058;-62
2021/08/14 06:18:41;;;;;;;10.48;5.58;;;;;;;21.52;54.68;101282.72;1735027;80;21153;-60
2021/08/14 06:21:09;;;;;;;14.43;6.17;;;;;;;21.57;54.60;101289.73;1739527;80;21346;-61
2021/08/14 06:23:36;;;;;;;12.05;5.65;;;;;;;21.64;55.02;101288.53;1703687;82;21079;-62
2021/08/14 06:26:02;;;;;;;10.80;5.75;;;;;;;21.73;54.36;101287.98;1742311;80;21050;-66
2021/08/14 06:28:31;;;;;;;15.25;5.90;;;;;;;21.78;54.09;101296.33;1733445;80;21508;-66
2021/08/14 06:30:57;;;;;;;11.43;6.12;;;;;;;21.84;53.68;101291.63;1737758;80;21110;-62
2021/08/14 06:33:24;;;;;;;14.23;5.78;;;;;;;21.87;53.68;101293.45;1707298;82;21040;-61
2021/08/14 06:35:51;;;;;;;9.73;5.37;;;;;;;21.92;52.81;101298.25;1690028;82;21109;-61
2021/08/14 06:38:17;;;;;;;10.60;5.53;;;;;;;21.96;52.69;101294.23;1717336;82;21568;-62
2021/08/14 06:40:44;;;;;;;8.78;5.00;;;;;;;22.03;52.82;101292.51;1735389;80;21498;-62
2021/08/14 06:43:10;;;;;;;9.95;5.50;;;;;;;22.11;52.88;101286.77;1710854;82;21159;-61
2021/08/14 06:45:37;;;;;;;7.47;4.58;;;;;;;22.17;52.51;101288.75;1713601;82;21341;-62
2021/08/14 06:48:05;;;;;;;7.72;4.22;;;;;;;22.24;52.22;101289.22;1710470;81;21058;-66
2021/08/14 06:50:32;;;;;;;8.08;4.42;;;;;;;22.33;52.17;101294.55;1703056;81;21066;-61
2021/08/14 06:52:58;;;;;;;8.40;5.17;;;;;;;22.40;51.71;101292.82;1689283;83;21058;-61
2021/08/14 06:55:26;;;;;;;7.53;4.35;;;;;;;22.44;51.58;101289.61;1690564;81;21490;-60
2021/08/14 06:57:53;;;;;;;7.17;4.30;;;;;;;22.53;51.67;101296.26;1711562;81;21074;-61
2021/08/14 07:00:19;;;;;;;9.30;4.70;;;;;;;22.58;51.85;101296.55;1710721;81;21548;-61
2021/08/14 07:02:45;;;;;;;11.65;5.53;;;;;;;22.63;51.96;101288.28;1690362;83;21129;-61
2021/08/14 07:05:12;;;;;;;9.68;5.37;;;;;;;22.71;50.98;101295.44;1716504;81;21542;-61
2021/08/14 07:07:39;;;;;;;14.87;5.97;;;;;;;22.77;50.88;101296.03;1692019;83;21241;-60
2021/08/14 07:10:07;;;;;;;12.80;6.22;;;;;;;22.84;51.29;101289.95;1701538;81;21108;-61
2021/08/14 07:12:33;;;;;;;9.50;5.10;;;;;;;22.89;50.58;101295.09;1702875;82;21067;-61
2021/08/14 07:15:01;;;;;;;10.80;5.70;;;;;;;22.94;50.74;101293.21;1741324;80;21695;-60
2021/08/14 07:17:28;;;;;;;10.95;5.53;;;;;;;22.99;50.43;101287.61;1747648;80;21093;-61
2021/08/14 07:19:54;;;;;;;10.32;6.75;;;;;;;23.05;49.86;101288.75;1751233;80;22105;-60
2021/08/14 07:22:22;;;;;;;11.10;6.17;;;;;;;23.08;49.63;101287.08;1746599;80;21060;-60
2021/08/14 07:24:48;;;;;;;12.53;6.58;;;;;;;23.10;49.63;101278.33;1734764;80;21058;-61
2021/08/14 07:27:15;;;;;;;12.58;6.05;;;;;;;23.14;50.15;101278.27;1737391;80;21036;-61
2021/08/14 07:29:41;;;;;;;12.55;6.75;;;;;;;23.21;49.82;101276.20;1739037;80;21011;-61
2021/08/14 07:32:07;;;;;;;13.90;6.15;;;;;;;23.25;49.24;101272.11;1748156;80;21112;-60
2021/08/14 07:34:34;;;;;;;13.08;6.28;;;;;;;23.27;48.76;101270.92;1737704;80;21066;-61
2021/08/14 07:37:00;;;;;;;13.45;6.42;;;;;;;23.31;48.94;101261.47;1740989;80;21050;-61
2021/08/14 07:39:28;;;;;;;11.65;5.78;;;;;;;23.39;49.16;101261.89;1746605;80;21110;-61
2021/08/14 07:41:54;;;;;;;12.15;6.10;;;;;;;23.48;48.51;101262.62;1740821;80;20996;-60
2021/08/14 07:44:20;;;;;;;10.70;5.83;;;;;;;23.54;47.92;101257.86;1741238;80;21098;-62
2021/08/14 07:46:48;;;;;;;11.85;5.97;;;;;;;23.60;48.36;101261.64;1741627;80;21102;-62
2021/08/14 07:49:14;;;;;;;11.95;5.37;;;;;;;23.68;48.54;101254.81;1745387;80;21097;-61
2021/08/14 07:51:41;;;;;;;9.38;4.50;;;;;;;23.76;47.93;101258.74;1741355;80;21743;-61
2021/08/14 07:54:07;;;;;;;11.45;5.83;;;;;;;23.83;47.28;101254.30;1740003;80;21686;-62
2021/08/14 07:56:34;;;;;;;13.93;5.47;;;;;;;23.89;47.16;101245.48;1737890;80;23272;-62
2021/08/14 07:59:00;;;;;;;10.23;5.65;;;;;;;23.95;46.92;101247.09;1741745;80;21076;-63
2021/08/14 08:01:27;;;;;;;11.70;5.42;;;;;;;24.02;46.26;101250.16;1741065;80;21047;-62
2021/08/14 08:03:54;;;;;;;10.68;4.50;;;;;;;24.09;45.81;101244.85;1716922;81;21067;-61
2021/08/14 08:06:22;;;;;;;7.50;4.50;;;;;;;24.11;45.68;101236.93;1748601;80;21637;-61
2021/08/14 08:08:48;;;;;;;10.72;4.30;;;;;;;24.18;46.03;101237.52;1744657;80;21068;-62
2021/08/14 08:11:15;;;;;;;9.23;4.12;;;;;;;24.24;46.26;101237.58;1758098;79;21063;-61
2021/08/14 08:13:42;;;;;;;7.83;4.20;;;;;;;24.33;45.26;101240.97;1749806;79;21035;-62
2021/08/14 08:16:09;;;;;;;9.40;4.45;;;;;;;24.38;44.50;101226.95;1756973;79;21691;-62
2021/08/14 08:18:35;;;;;;;7.40;4.22;;;;;;;24.45;45.43;101230.52;1751285;79;21038;-61
2021/08/14 08:21:02;;;;;;;8.38;4.35;;;;;;;24.53;45.49;101227.69;1753323;79;21075;-62
2021/08/14 08:23:28;;;;;;;9.28;3.60;;;;;;;24.63;44.77;101230.08;1739204;80;21073;-62
2021/08/14 08:25:55;;;;;;;6.90;4.00;;;;;;;24.71;43.96;101230.43;1755472;79;21004;-63
2021/08/14 08:28:22;;;;;;;7.72;4.12;;;;;;;24.76;43.59;101222.08;1754910;79;21131;-60
2021/08/14 08:30:50;;;;;;;10.43;4.03;;;;;;;24.79;43.97;101219.00;1763960;79;21027;-62
2021/08/14 08:33:16;;;;;;;6.83;3.62;;;;;;;24.84;45.17;101217.89;1758490;79;22534;-61
2021/08/14 08:35:43;;;;;;;6.05;3.72;;;;;;;24.93;44.21;101217.73;1737605;80;21149;-64
2021/08/14 08:38:09;;;;;;;5.78;3.30;;;;;;;25.00;43.86;101213.25;1763267;79;21035;-61
2021/08/14 08:40:40;;;;;;;6.17;3.42;;;;;;;25.06;43.09;101209.75;1735549;80;21524;-61
2021/08/14 08:43:07;;;;;;;11.38;3.92;;;;;;;25.08;42.30;101210.37;1754363;79;21023;-61
2021/08/14 08:45:35;;;;;;;6.45;3.12;;;;;;;25.11;42.11;101209.98;1754175;79;22737;-60
2021/08/14 08:48:06;;;;;;;6.87;3.25;;;;;;;25.16;42.35;101211.55;1740538;79;21058;-60
2021/08/14 08:50:34;;;;;;;6.22;3.05;;;;;;;25.22;42.22;101207.25;1757721;79;21125;-60
2021/08/14 08:53:02;;;;;;;6.85;2.55;;;;;;;25.29;41.31;101200.59;1732528;79;21058;-60
2021/08/14 08:55:28;;;;;;;7.08;2.72;;;;;;;25.35;40.82;101203.80;1734857;79;21126;-62
2021/08/14 08:57:59;;;;;;;5.05;2.50;;;;;;;25.38;38.94;101210.97;1764879;79;21197;-63
2021/08/14 09:00:25;;;;;;;6.00;2.72;;;;;;;25.45;39.03;101207.48;1743070;80;21082;-63
2021/08/14 09:03:11;;;;;;;4.97;2.45;;;;;;;25.54;39.69;101198.20;1730150;80;21066;-63
2021/08/14 09:05:50;;;;;;;6.08;2.55;;;;;;;25.62;39.37;101200.72;1756297;79;21106;-62
2021/08/14 09:08:16;;;;;;;5.30;2.05;;;;;;;25.70;37.57;101194.30;1737859;79;21082;-62
2021/08/14 09:10:44;;;;;;;4.58;2.30;;;;;;;25.76;37.12;101198.35;1759843;79;21482;-63
2021/08/14 09:13:16;;;;;;;7.75;3.10;;;;;;;25.80;37.63;101197.42;1759673;79;21040;-63
2021/08/14 09:15:42;;;;;;;5.87;3.10;;;;;;;25.89;37.75;101192.17;1703763;82;21688;-64
2021/08/14 09:18:15;;;;;;;6.55;3.10;;;;;;;25.96;38.47;101200.30;1758395;79;21067;-63
2021/08/14 09:20:52;;;;;;;5.05;2.52;;;;;;;26.04;38.68;101195.21;1757646;79;21057;-63
2021/08/14 09:23:23;;;;;;;7.03;3.22;;;;;;;26.11;38.81;101193.37;1759618;79;21103;-62
2021/08/14 09:25:57;;;;;;;6.03;3.58;;;;;;;26.15;38.83;101183.83;1758558;79;21094;-63
2021/08/14 09:28:37;;;;;;;7.03;3.33;;;;;;;26.20;38.96;101187.26;1764983;79;21519;-63
2021/08/14 09:31:06;;;;;;;11.60;3.77;;;;;;;26.23;39.11;101182.27;1760490;79;21055;-64
2021/08/14 09:33:35;;;;;;;6.97;3.35;;;;;;;26.25;39.22;101184.23;1738220;80;21047;-63
2021/08/14 09:36:09;;;;;;;7.28;3.75;;;;;;;26.22;38.73;101181.95;1757172;79;21019;-65
2021/08/14 09:38:47;;;;;;;8.05;4.00;;;;;;;26.26;38.47;101176.97;1751021;80;21455;-63
2021/08/14 09:41:19;;;;;;;6.53;3.58;;;;;;;26.32;38.61;101188.28;1737272;80;21117;-63
2021/08/14 09:43:49;;;;;;;6.97;3.30;;;;;;;26.34;38.54;101178.11;1757305;79;21043;-64
2021/08/14 09:46:17;;;;;;;7.47;4.08;;;;;;;26.34;39.21;101176.76;1761693;79;21126;-64
2021/08/14 09:48:56;;;;;;;8.23;3.70;;;;;;;26.35;39.26;101170.87;1699183;82;21088;-63
2021/08/14 09:51:32;;;;;;;7.25;3.92;;;;;;;26.38;39.39;101173.97;1757085;79;21036;-63
2021/08/14 09:54:01;;;;;;;7.75;3.90;;;;;;;26.39;38.78;101173.45;1752056;79;21086;-64
2021/08/14 09:56:32;;;;;;;7.62;4.00;;;;;;;26.37;38.40;101170.13;1757971;79;21090;-63
2021/08/14 09:58:56;;;;;;;7.28;3.80;;;;;;;26.36;39.18;101167.11;1700827;82;21043;-64
2021/08/14 10:01:25;;;;;;;7.97;4.08;;;;;;;26.39;39.10;101168.87;1760257;79;21083;-62
2021/08/14 10:03:51;;;;;;;6.50;3.95;;;;;;;26.48;38.97;101161.41;1767692;79;21546;-63
2021/08/14 10:06:19;;;;;;;8.75;3.87;;;;;;;26.57;38.70;101153.39;1732398;79;21093;-63
2021/08/14 10:08:46;;;;;;;7.10;3.95;;;;;;;26.68;38.50;101156.02;1756489;79;21035;-63
2021/08/14 10:11:14;;;;;;;10.30;3.83;;;;;;;26.76;38.23;101154.41;1751444;79;21495;-61
2021/08/14 10:13:42;;;;;;;8.13;4.55;;;;;;;26.82;38.11;101152.77;1746779;80;21078;-63
2021/08/14 10:16:10;;;;;;;7.03;4.00;;;;;;;26.80;37.71;101148.09;1759719;79;21063;-62
2021/08/14 10:18:38;;;;;;;6.45;3.37;;;;;;;26.79;37.74;101147.25;1754814;79;21031;-63
2021/08/14 10:21:10;;;;;;;7.40;3.83;;;;;;;26.79;37.70;101147.25;1764132;79;21078;-63
2021/08/14 10:23:36;;;;;;;6.97;3.90;;;;;;;26.85;37.87;101146.94;1759209;79;21051;-63
2021/08/14 10:26:10;;;;;;;7.37;3.70;;;;;;;26.86;38.02;101143.18;1762613;79;21301;-63
2021/08/14 10:28:49;;;;;;;6.80;3.87;;;;;;;26.88;37.36;101149.19;1739243;80;21613;-64
2021/08/14 10:31:36;;;;;;;8.00;3.72;;;;;;;26.91;37.08;101143.37;1755699;79;21570;-63
2021/08/14 10:34:14;;;;;;;7.97;4.12;;;;;;;26.99;37.68;101130.16;1734585;79;21585;-64
2021/08/14 10:36:42;;;;;;;6.78;4.37;;;;;;;27.11;36.97;101134.38;1750222;79;21000;-63
2021/08/14 10:39:15;;;;;;;8.68;4.60;;;;;;;27.20;37.75;101122.27;1747661;79;22041;-63
2021/08/14 10:41:43;;;;;;;7.12;4.10;;;;;;;27.29;38.06;101127.77;1759239;79;21078;-63
2021/08/14 10:44:11;;;;;;;7.42;3.87;;;;;;;27.36;36.08;101127.74;1744686;79;21007;-64
2021/08/14 10:46:51;;;;;;;7.08;3.87;;;;;;;27.35;35.92;101120.66;1769290;79;21664;-65
2021/08/14 10:49:35;;;;;;;7.50;3.62;;;;;;;27.33;36.20;101115.48;1756945;79;21130;-64
2021/08/14 10:52:07;;;;;;;6.00;3.08;;;;;;;27.33;35.90;101113.31;1738775;79;21130;-64
2021/08/14 10:54:56;;;;;;;7.17;3.60;;;;;;;27.29;35.79;101109.39;1762249;79;21030;-64
2021/08/14 10:57:37;;;;;;;7.67;3.72;;;;;;;27.28;35.39;101111.21;1757239;79;21070;-64
2021/08/14 11:00:10;;;;;;;6.62;3.62;;;;;;;27.29;35.54;101112.91;1753825;79;21612;-65
2021/08/14 11:02:36;;;;;;;6.65;3.67;;;;;;;27.35;35.48;101116.11;1737964;80;21094;-64
2021/08/14 11:05:03;;;;;;;7.40;4.05;;;;;;;27.41;36.27;101107.66;1714094;80;21227;-65
2021/08/14 11:07:29;;;;;;;7.92;4.08;;;;;;;27.50;36.00;101100.92;1758409;79;20992;-65
2021/08/14 11:10:03;;;;;;;6.72;3.40;;;;;;;27.63;35.89;101097.31;1762879;79;21047;-64
2021/08/14 11:12:41;;;;;;;5.72;3.42;;;;;;;27.71;35.04;101100.29;1758059;79;21055;-65
2021/08/14 11:15:38;;;;;;;8.48;3.42;;;;;;;27.71;35.00;101098.41;1754767;79;21019;-64
2021/08/14 11:18:05;;;;;;;6.58;3.33;;;;;;;27.72;35.36;101098.72;1734930;79;21081;-64
2021/08/14 11:20:40;;;;;;;7.70;3.20;;;;;;;27.76;34.75;101092.34;1758177;79;21106;-64
2021/08/14 11:23:26;;;;;;;6.05;3.37;;;;;;;27.83;35.36;101093.64;1756011;79;21471;-63
2021/08/14 11:25:54;;;;;;;7.35;3.15;;;;;;;27.87;34.89;101092.14;1744020;80;21039;-63